• Join FlightAware (Why Join?)
  • Login
  • US Flag 
05:13PM EDT


 

Airport Tracker/Info


-or-


 

Live Flight TrackerFlight Track Log ✈ N249JB ✈ 01-May-2012 ✈ KJFK - KROC

Flight Track Log - Related Links

Times and Time Zones

All times are in EDT time to prevent confusion due to time zone crossing. See the N249JB flight status page for this flight to view local times or setup timezone preferences in your user account.

Time Position Orientation Groundspeed Altitude Reporting Facility
EDT Latitude Longitude Course Direction KTS MPH feet Rate Location/Type
02:31PM 40.6523 -73.8010 212° Southwest  Level FlightAware Approximate
02:32PM 40.7126 -73.8772 150° Southeast  Level FlightAware Approximate
02:32PM 40.6333 -73.8167 237° Southwest 161 185 1,700  Level New York TRACON
02:33PM 40.6000 -73.8833 143° Southeast 228 262 3,300 1,920 Climbing New York TRACON
02:34PM 40.5500 -73.8333 45° Northeast 304 350 5,600 2,280 Climbing New York TRACON
02:35PM 40.6000 -73.7667 37° Northeast 278 320 7,900 2,400 Climbing New York TRACON
02:36PM 40.6667 -73.7000 31° Northeast 288 331 10,500 1,560 Climbing New York TRACON
02:37PM 40.7500 -73.6333 31° Northeast 351 404 11,100 420 Climbing New York TRACON
02:38PM 40.8333 -73.5667 336° Northwest 356 410 11,400 1,560 Climbing New York TRACON
02:39PM 40.9167 -73.6167 303° West 337 388 14,300 1,980 Climbing New York TRACON
02:41PM 41.0003 -73.7844 292° West 354 407 17,100 960 Climbing New York Center
02:42PM 41.0386 -73.9128 292° West 342 394 17,100  Level New York Center
02:43PM 41.0731 -74.0272 290° West 342 394 17,100  Level New York Center
02:44PM 41.1050 -74.1469 292° West 342 394 17,100 1,140 Level New York Center
02:45PM 41.1411 -74.2672 291° West 342 394 19,400 2,340 Climbing New York Center
02:46PM 41.1750 -74.3847 290° West 348 400 21,800 1,260 Climbing New York Center
02:47PM 41.2086 -74.5081 296° West 353 406 22,000 60 Climbing New York Center
02:48PM 41.2528 -74.6264 306° West 353 406 22,000  Level New York Center
02:49PM 41.3117 -74.7347 308° West 353 406 22,000  Level New York Center
02:50PM 41.3728 -74.8406 307° West 365 420 22,000  Level New York Center
02:51PM 41.4333 -74.9494 306° West 365 420 22,000  Level New York Center
02:52PM 41.4919 -75.0583 306° West 365 420 22,000  Level New York Center
02:53PM 41.5506 -75.1644 306° West 365 420 22,000  Level New York Center
02:55PM 41.6694 -75.3806 307° West 365 420 22,000  Level New York Center
02:56PM 41.7297 -75.4875 304° West 365 420 22,000  Level New York Center
02:57PM 41.7858 -75.5972 306° West 365 420 22,000  Level New York Center
02:58PM 41.8458 -75.7075 305° West 365 420 22,000  Level New York Center
02:59PM 41.9036 -75.8175 306° West 365 420 22,000  Level New York Center
03:00PM 41.9614 -75.9253 306° West 365 420 22,000  Level New York Center
03:02PM 42.0694 -76.1267 305° West 379 436 22,000  Level Cleveland Center
03:03PM 42.1306 -76.2456 306° West 364 419 22,000  Level Cleveland Center
03:04PM 42.1908 -76.3594 307° West 364 419 22,000  Level Cleveland Center
03:05PM 42.2533 -76.4703 305° West 371 427 22,000  Level Cleveland Center
03:06PM 42.3139 -76.5869 306° West 371 427 22,000 -480 Level Cleveland Center
03:07PM 42.3717 -76.6958 304° West 365 420 21,100 -1,440 Descending Cleveland Center
03:08PM 42.4256 -76.8053 305° West 365 420 19,200 -1,920 Descending Cleveland Center
03:09PM 42.4856 -76.9197 304° West 351 404 17,200 -1,920 Descending Cleveland Center
03:10PM 42.5100 -76.9692 309° West 346 398 16,300 -2,280 Descending Cleveland Center
03:11PM 42.5714 -77.0728 322° Northwest 328 377 13,800 -2,460 Descending Cleveland Center
03:12PM 42.6403 -77.1453 321° Northwest 316 364 11,400 -1,440 Descending Cleveland Center
03:13PM 42.7094 -77.2206 319° Northwest 319 367 11,000 -240 Descending Cleveland Center
03:14PM 42.7761 -77.2989 322° Northwest 320 368 11,000 -240 Level Cleveland Center
03:15PM 42.8514 -77.3800 321° Northwest 313 360 10,500 -900 Descending Cleveland Center
03:16PM 42.9117 -77.4478 328° Northwest 270 311 9,200 -1,440 Descending Cleveland Center
03:17PM 42.9842 -77.5094 22° Northeast 266 306 7,300 -1,620 Descending Cleveland Center
03:18PM 43.0458 -77.4753 22° Northeast 273 314 6,000 -1,680 Descending Cleveland Center
03:19PM 43.1136 -77.4378 North 273 314 4,400 -1,020 Descending Cleveland Center
03:20PM 43.1864 -77.4283 356° North 263 303 4,000 -240 Descending Cleveland Center
03:21PM 43.2594 -77.4358 297° West 253 291 4,000 -60 Level Cleveland Center
03:22PM 43.2819 -77.4975 236° Southwest 193 222 3,900 -600 Descending Cleveland Center
03:23PM 43.2542 -77.5531 219° Southwest 171 197 2,800 -720 Descending Cleveland Center
03:24PM 43.2197 -77.5919 215° Southwest 169 194 2,500 -360 Descending Cleveland Center
03:25PM 43.1892 -77.6217 215° Southwest 139 160 2,100 -480 Descending Cleveland Center